Time;durP1;ratioP1;P1;durP2;ratioP2;P2;SDS_P1;SDS_P2;PMS_P1;PMS_P2;Temp;Humidity;BMP_temperature;BMP_pressure;BME280_temperature;BME280_humidity;BME280_pressure;Samples;Min_cycle;Max_cycle;Signal;HPM_P1;HPM_P2
2022/07/06 00:01:51;;;;;;;0.40;0.40;;;;;;;28.13;35.37;99536.00;5110607;28;20506;-70
2022/07/06 00:04:18;;;;;;;0.20;0.20;;;;;;;28.09;35.47;99535.28;5111084;28;20051;-70
2022/07/06 00:06:43;;;;;;;0.20;0.20;;;;;;;28.10;35.52;99543.28;5102793;28;20051;-70
2022/07/06 00:09:08;;;;;;;0.43;0.10;;;;;;;28.11;35.47;99549.72;5110520;28;20040;-70
2022/07/06 00:11:34;;;;;;;0.30;0.20;;;;;;;28.11;35.45;99549.72;5092433;28;20525;-70
2022/07/06 00:13:59;;;;;;;0.40;0.30;;;;;;;28.11;35.52;99538.47;5105038;28;20043;-70
2022/07/06 00:16:25;;;;;;;0.30;0.30;;;;;;;28.11;35.45;99549.72;5107098;28;20084;-70
2022/07/06 00:18:51;;;;;;;0.22;0.22;;;;;;;28.09;35.59;99544.50;5103637;28;20040;-70
2022/07/06 00:21:17;;;;;;;0.30;0.30;;;;;;;28.09;35.60;99541.69;5102258;28;20423;-70
2022/07/06 00:23:43;;;;;;;0.57;0.30;;;;;;;28.08;35.71;99545.72;5098667;28;20043;-70
2022/07/06 00:26:08;;;;;;;0.50;0.30;;;;;;;28.09;35.60;99535.28;5110057;28;20423;-70
2022/07/06 00:28:34;;;;;;;0.25;0.25;;;;;;;28.10;35.70;99537.66;5107986;28;20479;-70
2022/07/06 00:30:59;;;;;;;0.40;0.30;;;;;;;28.08;35.60;99526.06;5110366;28;20054;-70
2022/07/06 00:33:24;;;;;;;0.40;0.30;;;;;;;28.07;35.80;99535.69;5109939;28;20411;-70
2022/07/06 00:35:50;;;;;;;0.17;0.17;;;;;;;28.08;35.79;99533.69;5110324;28;20055;-70
2022/07/06 00:38:15;;;;;;;1.08;0.32;;;;;;;28.10;35.72;99531.25;5096956;28;20056;-70
2022/07/06 00:40:41;;;;;;;0.22;0.20;;;;;;;28.11;35.60;99532.84;5095594;28;20035;-70
2022/07/06 00:43:06;;;;;;;0.35;0.35;;;;;;;28.06;35.51;99530.47;5099400;28;20055;-70
2022/07/06 00:45:32;;;;;;;0.30;0.20;;;;;;;28.07;35.71;99537.69;5093176;28;20077;-70
2022/07/06 00:47:57;;;;;;;0.22;0.22;;;;;;;28.07;35.78;99538.50;5102967;28;20044;-70
2022/07/06 00:50:23;;;;;;;0.20;0.20;;;;;;;28.06;35.94;99536.09;5096536;28;20039;-70
2022/07/06 00:52:53;;;;;;;0.38;0.30;;;;;;;28.08;35.80;99542.13;5110036;28;20507;-70
2022/07/06 00:55:24;;;;;;;0.52;0.32;;;;;;;28.09;35.64;99538.09;5100531;28;20044;-70
2022/07/06 00:57:51;;;;;;;0.70;0.30;;;;;;;28.06;35.80;99541.72;5104437;28;20059;-70
2022/07/06 01:00:19;;;;;;;0.20;0.20;;;;;;;28.06;35.82;99548.16;5108620;28;20549;-70
2022/07/06 01:02:45;;;;;;;0.20;0.20;;;;;;;28.06;35.81;99545.34;5106731;28;20044;-70
2022/07/06 01:05:13;;;;;;;0.30;0.20;;;;;;;28.05;35.77;99551.38;5097213;28;20044;-70
2022/07/06 01:07:40;;;;;;;0.75;0.30;;;;;;;28.06;35.74;99548.16;5105780;28;20052;-70
2022/07/06 01:10:07;;;;;;;0.30;0.30;;;;;;;28.05;35.79;99546.56;5109352;28;20423;-70
2022/07/06 01:12:36;;;;;;;0.55;0.22;;;;;;;28.06;35.64;99558.59;5097258;28;20043;-70
2022/07/06 01:15:03;;;;;;;0.55;0.30;;;;;;;28.03;35.98;99554.63;5109677;28;20044;-70
2022/07/06 01:17:30;;;;;;;0.60;0.30;;;;;;;27.99;35.92;99548.25;5108345;28;20055;-70
2022/07/06 01:19:55;;;;;;;0.47;0.38;;;;;;;27.95;35.80;99551.13;5098511;28;20051;-70
2022/07/06 01:22:20;;;;;;;0.20;0.20;;;;;;;27.96;36.00;99555.50;5107067;28;20047;-70
2022/07/06 01:24:46;;;;;;;0.20;0.20;;;;;;;27.94;36.07;99560.78;5100337;28;20579;-70
2022/07/06 01:27:11;;;;;;;0.50;0.40;;;;;;;27.91;35.97;99550.34;5092537;28;20040;-70
2022/07/06 01:29:37;;;;;;;0.50;0.28;;;;;;;27.90;35.98;99554.38;5109241;28;20100;-70
2022/07/06 01:32:02;;;;;;;0.20;0.20;;;;;;;27.87;36.12;99558.03;5095634;28;20478;-70
2022/07/06 01:34:28;;;;;;;0.20;0.20;;;;;;;27.87;36.19;99554.44;5109023;28;20084;-70
2022/07/06 01:36:54;;;;;;;0.25;0.20;;;;;;;27.83;36.09;99540.41;5109372;28;20118;-70
2022/07/06 01:39:20;;;;;;;0.30;0.30;;;;;;;27.86;36.06;99553.63;5107259;28;20035;-70
2022/07/06 01:41:45;;;;;;;0.30;0.25;;;;;;;27.85;36.32;99542.78;5105042;28;20047;-70
2022/07/06 01:44:11;;;;;;;0.50;0.30;;;;;;;27.84;36.17;99546.81;5108979;28;20499;-70
2022/07/06 01:46:37;;;;;;;0.30;0.30;;;;;;;27.83;36.32;99546.03;5101779;28;20079;-70
2022/07/06 01:49:03;;;;;;;1.63;0.38;;;;;;;27.83;36.29;99548.84;5102246;28;20039;-70
2022/07/06 01:51:28;;;;;;;0.70;0.40;;;;;;;27.82;36.28;99550.06;5109054;28;20131;-70
2022/07/06 01:53:53;;;;;;;0.55;0.30;;;;;;;27.83;36.22;99553.66;5100186;28;20048;-70
2022/07/06 01:56:19;;;;;;;0.35;0.32;;;;;;;27.82;36.21;99549.28;5106079;28;20038;-70
2022/07/06 01:58:46;;;;;;;0.28;0.22;;;;;;;27.80;36.26;99552.50;5109072;28;20047;-70
2022/07/06 02:01:17;;;;;;;0.20;0.20;;;;;;;27.77;36.17;99553.31;5107630;28;20480;-70
2022/07/06 02:03:44;;;;;;;0.20;0.20;;;;;;;27.77;36.31;99558.94;5097845;28;20040;-70
2022/07/06 02:06:10;;;;;;;0.30;0.22;;;;;;;27.76;36.33;99550.94;5103035;28;20072;-70
2022/07/06 02:08:36;;;;;;;0.20;0.20;;;;;;;27.75;36.33;99552.97;5107968;28;20043;-70
2022/07/06 02:11:03;;;;;;;0.10;0.10;;;;;;;27.75;36.37;99549.34;5107049;27;20400;-70
2022/07/06 02:13:28;;;;;;;0.98;0.45;;;;;;;27.76;36.06;99562.97;5108638;28;20094;-70
2022/07/06 02:15:54;;;;;;;0.50;0.30;;;;;;;27.77;36.19;99552.53;5103026;28;20075;-70
2022/07/06 02:18:20;;;;;;;0.32;0.22;;;;;;;27.76;36.28;99546.13;5102779;28;20041;-70
2022/07/06 02:20:46;;;;;;;0.20;0.20;;;;;;;27.75;36.20;99558.56;5108657;28;20048;-70
2022/07/06 02:23:11;;;;;;;0.35;0.25;;;;;;;27.75;36.37;99550.16;5095491;28;20047;-70
2022/07/06 02:25:37;;;;;;;0.30;0.22;;;;;;;27.74;36.22;99554.19;5108206;28;20039;-70
2022/07/06 02:28:02;;;;;;;0.60;0.38;;;;;;;27.76;36.12;99553.75;5108782;28;20101;-70
2022/07/06 02:30:28;;;;;;;0.50;0.40;;;;;;;27.71;36.21;99560.63;5105171;28;20735;-70
2022/07/06 02:32:53;;;;;;;0.30;0.30;;;;;;;27.73;36.21;99563.03;5098195;28;20040;-70
2022/07/06 02:35:19;;;;;;;0.20;0.20;;;;;;;27.73;35.96;99563.84;5107577;28;20448;-70
2022/07/06 02:37:44;;;;;;;0.15;0.15;;;;;;;27.72;36.21;99570.66;5088754;28;20044;-70
2022/07/06 02:40:10;;;;;;;0.45;0.30;;;;;;;27.70;36.53;99571.06;5101627;28;20036;-70
2022/07/06 02:42:35;;;;;;;0.38;0.20;;;;;;;27.69;36.36;99566.66;5108481;28;20403;-70
2022/07/06 02:45:01;;;;;;;0.20;0.20;;;;;;;27.69;36.38;99569.47;5106432;28;20516;-70
2022/07/06 02:47:27;;;;;;;0.17;0.17;;;;;;;27.70;36.12;99564.66;5108511;28;20055;-70
2022/07/06 02:49:53;;;;;;;0.30;0.30;;;;;;;27.67;36.26;99562.66;5108067;28;20043;-70
2022/07/06 02:52:19;;;;;;;0.38;0.22;;;;;;;27.67;36.41;99569.09;5108389;28;20039;-70
2022/07/06 02:54:45;;;;;;;0.30;0.30;;;;;;;27.66;36.32;99572.31;5108581;28;20051;-67
2022/07/06 02:57:10;;;;;;;0.38;0.28;;;;;;;27.64;36.34;99578.31;5108714;28;20093;-67
2022/07/06 02:59:36;;;;;;;0.20;0.20;;;;;;;27.65;36.40;99585.56;5108063;28;20051;-67
2022/07/06 03:02:06;;;;;;;0.40;0.30;;;;;;;27.65;36.45;99577.13;5108472;28;20075;-67
2022/07/06 03:04:31;;;;;;;0.17;0.10;;;;;;;27.63;36.34;99581.56;5105472;28;20415;-67
2022/07/06 03:06:57;;;;;;;0.40;0.30;;;;;;;27.66;36.31;99586.38;5108293;28;20039;-67
2022/07/06 03:09:22;;;;;;;0.20;0.20;;;;;;;27.64;36.36;99577.53;5108150;28;20075;-67
2022/07/06 03:11:48;;;;;;;0.30;0.25;;;;;;;27.64;36.36;99583.94;5107149;28;20061;-67
2022/07/06 03:14:13;;;;;;;0.32;0.30;;;;;;;27.62;36.33;99574.34;5111261;28;20047;-67
2022/07/06 03:16:39;;;;;;;0.60;0.30;;;;;;;27.65;36.34;99584.78;5111596;28;20043;-67
2022/07/06 03:19:04;;;;;;;0.40;0.30;;;;;;;27.63;36.47;99584.38;5111706;28;20130;-67
2022/07/06 03:21:29;;;;;;;0.57;0.40;;;;;;;27.64;36.36;99586.75;5111403;28;20059;-67
2022/07/06 03:23:55;;;;;;;0.60;0.25;;;;;;;27.63;36.36;99587.97;5084284;28;20039;-67
2022/07/06 03:26:20;;;;;;;0.63;0.50;;;;;;;27.61;36.29;99598.84;5111523;28;20048;-67
2022/07/06 03:28:46;;;;;;;0.20;0.20;;;;;;;27.60;36.36;99591.63;5108928;28;20108;-67
2022/07/06 03:31:11;;;;;;;0.45;0.30;;;;;;;27.60;36.36;99593.66;5111223;28;20078;-67
2022/07/06 03:33:36;;;;;;;0.32;0.30;;;;;;;27.61;36.37;99590.41;5106010;28;20067;-67
2022/07/06 03:36:02;;;;;;;0.28;0.28;;;;;;;27.59;36.37;99595.66;5098623;28;20456;-67
2022/07/06 03:38:28;;;;;;;0.50;0.30;;;;;;;27.58;36.53;99596.88;5110772;28;20036;-67
2022/07/06 03:40:53;;;;;;;0.40;0.35;;;;;;;27.59;36.46;99600.50;5110396;28;20040;-67
2022/07/06 03:43:19;;;;;;;0.47;0.30;;;;;;;27.58;36.44;99604.50;5111322;28;20555;-67
2022/07/06 03:45:44;;;;;;;0.20;0.20;;;;;;;27.56;36.35;99604.91;5110823;28;20036;-67
2022/07/06 03:48:10;;;;;;;0.10;0.10;;;;;;;27.57;36.50;99606.50;5111449;28;20100;-67
2022/07/06 03:50:35;;;;;;;0.20;0.20;;;;;;;27.56;36.39;99598.50;5097490;28;20044;-67
2022/07/06 03:53:01;;;;;;;0.20;0.20;;;;;;;27.58;36.61;99604.50;5109226;28;20039;-67
2022/07/06 03:55:26;;;;;;;0.40;0.40;;;;;;;27.54;36.55;99596.09;5111349;28;20096;-67
2022/07/06 03:57:52;;;;;;;0.50;0.30;;;;;;;27.57;36.37;99602.91;5106961;28;20040;-67
2022/07/06 04:00:17;;;;;;;0.55;0.30;;;;;;;27.57;36.42;99605.69;5110869;28;20051;-67
2022/07/06 04:02:42;;;;;;;0.20;0.20;;;;;;;27.56;36.25;99601.31;5110693;28;20127;-67
2022/07/06 04:05:08;;;;;;;0.50;0.38;;;;;;;27.55;36.37;99594.09;5102898;28;20504;-67
2022/07/06 04:07:34;;;;;;;0.35;0.30;;;;;;;27.56;36.32;99604.13;5105748;28;20225;-67
2022/07/06 04:09:59;;;;;;;0.20;0.20;;;;;;;27.56;36.40;99604.91;5096322;28;21580;-67
2022/07/06 04:12:24;;;;;;;0.30;0.22;;;;;;;27.55;36.45;99600.50;5103485;28;20036;-67
2022/07/06 04:14:50;;;;;;;0.77;0.40;;;;;;;27.54;36.16;99604.53;5092663;28;20040;-67
2022/07/06 04:19:59;;;;;;;0.30;0.20;;;;;;;27.53;36.68;99597.31;5102490;28;20400;-67
2022/07/06 04:22:25;;;;;;;0.40;0.30;;;;;;;27.52;36.45;99598.53;5108470;28;20055;-67
2022/07/06 04:24:50;;;;;;;0.30;0.30;;;;;;;27.52;36.39;99606.19;5109704;28;20039;-67
2022/07/06 04:27:16;;;;;;;0.20;0.20;;;;;;;27.51;36.55;99607.41;5096873;28;20032;-67
2022/07/06 04:29:41;;;;;;;0.40;0.30;;;;;;;27.51;36.51;99596.94;5108455;28;20048;-67
2022/07/06 04:32:06;;;;;;;0.30;0.30;;;;;;;27.53;36.73;99602.16;5109463;28;20067;-67
2022/07/06 04:34:32;;;;;;;0.30;0.30;;;;;;;27.49;36.60;99599.34;5107919;28;20449;-67
2022/07/06 04:36:58;;;;;;;0.70;0.40;;;;;;;27.51;36.59;99605.38;5109887;28;20070;-67
2022/07/06 04:39:23;;;;;;;0.25;0.20;;;;;;;27.51;36.78;99604.59;5106115;28;20034;-67
2022/07/06 04:41:48;;;;;;;0.40;0.30;;;;;;;27.51;36.77;99608.19;5109777;28;20408;-67
2022/07/06 04:44:14;;;;;;;0.25;0.22;;;;;;;27.50;36.86;99611.41;5109768;28;20036;-67
2022/07/06 04:46:39;;;;;;;0.30;0.28;;;;;;;27.54;36.77;99606.56;5106841;28;20066;-67
2022/07/06 04:49:04;;;;;;;0.38;0.30;;;;;;;27.54;36.78;99612.16;5109348;28;20043;-67
2022/07/06 04:51:30;;;;;;;0.30;0.20;;;;;;;27.53;36.94;99604.97;5102359;28;20086;-66
2022/07/06 04:53:55;;;;;;;0.30;0.20;;;;;;;27.55;37.01;99599.72;5104629;28;20241;-66
2022/07/06 04:56:21;;;;;;;1.50;0.30;;;;;;;27.57;37.06;99595.25;5103663;28;20046;-66
2022/07/06 04:58:46;;;;;;;0.30;0.30;;;;;;;27.56;36.90;99601.31;5102365;28;20439;-67
2022/07/06 05:01:11;;;;;;;0.30;0.30;;;;;;;27.58;37.10;99598.91;5106289;28;20408;-67
2022/07/06 05:03:40;;;;;;;1.00;0.38;;;;;;;27.62;36.81;99594.81;5099964;28;20058;-67
2022/07/06 05:06:06;;;;;;;0.38;0.30;;;;;;;27.65;37.05;99607.25;5108036;28;20079;-66
2022/07/06 05:08:32;;;;;;;0.60;0.30;;;;;;;27.65;37.02;99604.44;5109643;28;20408;-67
2022/07/06 05:10:58;;;;;;;0.47;0.30;;;;;;;27.65;37.06;99598.81;5100399;28;20133;-67
2022/07/06 05:13:23;;;;;;;0.30;0.30;;;;;;;27.67;37.05;99593.56;5106431;28;20683;-66
2022/07/06 05:15:48;;;;;;;0.60;0.40;;;;;;;27.70;36.90;99596.38;5094893;28;20043;-66
2022/07/06 05:18:14;;;;;;;0.30;0.30;;;;;;;27.75;36.91;99591.50;5109725;28;20083;-67
2022/07/06 05:20:40;;;;;;;0.40;0.30;;;;;;;27.75;36.81;99605.56;5101400;28;20058;-66
2022/07/06 05:23:05;;;;;;;0.47;0.30;;;;;;;27.75;36.96;99597.94;5103429;28;20073;-67
2022/07/06 05:25:32;;;;;;;0.30;0.30;;;;;;;27.79;36.93;99595.88;5109540;28;20046;-67
2022/07/06 05:27:58;;;;;;;0.43;0.30;;;;;;;27.80;36.96;99596.69;5105904;28;20055;-67
2022/07/06 05:30:23;;;;;;;0.50;0.30;;;;;;;27.81;36.97;99587.81;5096105;28;20044;-67
2022/07/06 05:32:49;;;;;;;0.32;0.22;;;;;;;27.82;36.95;99592.22;5109295;28;20046;-67
2022/07/06 05:35:14;;;;;;;0.50;0.20;;;;;;;27.86;37.18;99589.38;5109384;28;20040;-66
2022/07/06 05:37:40;;;;;;;0.65;0.40;;;;;;;27.86;37.00;99587.38;5097020;28;20135;-67
2022/07/06 05:40:05;;;;;;;0.38;0.32;;;;;;;27.82;37.26;99586.59;5102190;28;20036;-68
2022/07/06 05:42:31;;;;;;;1.45;0.40;;;;;;;27.80;37.38;99588.25;5107197;28;20043;-67
2022/07/06 05:44:56;;;;;;;4.07;0.70;;;;;;;27.82;37.17;99585.81;5101975;28;20131;-67
2022/07/06 05:50:12;;;;;;;6.90;0.63;;;;;;;27.86;37.53;99590.19;5109080;28;20180;-68
2022/07/06 05:52:54;;;;;;;9.93;0.80;;;;;;;27.87;37.36;99588.97;5108661;28;20090;-68
2022/07/06 05:55:20;;;;;;;4.38;0.85;;;;;;;27.90;37.22;99590.13;5106741;28;20126;-67
2022/07/06 05:57:45;;;;;;;8.55;0.55;;;;;;;27.91;37.20;99586.91;5108969;28;20040;-68
2022/07/06 06:00:11;;;;;;;2.50;0.50;;;;;;;27.92;37.25;99590.50;5108928;28;20131;-67
2022/07/06 06:02:41;;;;;;;3.85;0.45;;;;;;;27.93;37.51;99601.34;5106975;28;20059;-67
2022/07/06 06:05:08;;;;;;;3.00;0.47;;;;;;;27.90;37.52;99607.00;5097743;28;20389;-67
2022/07/06 06:07:37;;;;;;;1.52;0.60;;;;;;;27.84;37.85;99609.47;5107150;28;20044;-67
2022/07/06 06:10:05;;;;;;;5.97;0.60;;;;;;;27.79;38.15;99612.75;5109118;28;20051;-67
2022/07/06 06:12:30;;;;;;;2.05;0.60;;;;;;;27.77;37.98;99615.16;5108631;28;20035;-67
2022/07/06 06:14:56;;;;;;;6.03;0.50;;;;;;;27.69;38.24;99608.03;5104015;28;21307;-67
2022/07/06 06:17:21;;;;;;;1.90;0.50;;;;;;;27.69;38.27;99620.06;5109151;28;20392;-67
2022/07/06 06:19:47;;;;;;;3.67;0.77;;;;;;;27.68;38.26;99617.69;5103896;28;20035;-68
2022/07/06 06:22:13;;;;;;;1.20;0.52;;;;;;;27.64;38.76;99628.13;5094646;28;20182;-67
2022/07/06 06:24:39;;;;;;;1.38;0.40;;;;;;;27.60;38.72;99639.41;5108789;28;20093;-67
2022/07/06 06:27:04;;;;;;;2.33;0.55;;;;;;;27.60;38.47;99641.41;5105650;28;20052;-67
2022/07/06 06:29:29;;;;;;;1.42;0.40;;;;;;;27.63;38.46;99644.19;5097907;28;20096;-67
2022/07/06 06:31:55;;;;;;;2.13;0.80;;;;;;;27.63;38.48;99654.63;5108481;28;20412;-67
2022/07/06 06:34:20;;;;;;;1.10;0.40;;;;;;;27.62;38.44;99658.66;5101864;28;20100;-67
2022/07/06 06:36:46;;;;;;;1.23;0.50;;;;;;;27.64;38.37;99661.84;5100140;28;20130;-68
2022/07/06 06:39:11;;;;;;;1.10;0.40;;;;;;;27.65;38.50;99660.66;5108596;28;20039;-67
2022/07/06 06:41:36;;;;;;;1.40;0.47;;;;;;;27.64;38.40;99656.22;5105703;28;20082;-67
2022/07/06 06:44:02;;;;;;;0.70;0.38;;;;;;;27.59;38.33;99657.47;5105579;28;20388;-67
2022/07/06 06:46:27;;;;;;;1.40;0.40;;;;;;;27.63;38.22;99663.06;5100988;28;20431;-68
2022/07/06 06:48:53;;;;;;;0.45;0.40;;;;;;;27.60;38.22;99667.50;5102381;27;20040;-67
2022/07/06 06:51:18;;;;;;;1.05;0.40;;;;;;;27.60;38.20;99661.88;5109382;28;20078;-67
2022/07/06 06:53:44;;;;;;;0.73;0.43;;;;;;;27.63;38.42;99660.25;5109481;28;20058;-67
2022/07/06 06:56:09;;;;;;;1.02;0.57;;;;;;;27.63;37.75;99661.03;5099380;28;20039;-67
2022/07/06 06:58:35;;;;;;;2.80;0.80;;;;;;;27.60;37.54;99652.66;5092825;28;20415;-68
2022/07/06 07:01:00;;;;;;;3.95;0.60;;;;;;;27.58;37.46;99655.09;5096645;28;20055;-67
2022/07/06 07:03:25;;;;;;;2.00;0.73;;;;;;;27.48;37.03;99653.16;5095445;28;20107;-66
2022/07/06 07:05:51;;;;;;;1.70;0.90;;;;;;;27.22;37.21;99646.97;5084266;28;20040;-66
2022/07/06 07:08:16;;;;;;;2.25;0.80;;;;;;;26.83;37.52;99653.63;5086249;28;20045;-67
2022/07/06 07:10:41;;;;;;;2.83;0.90;;;;;;;26.50;38.72;99646.56;5092867;28;20407;-67
2022/07/06 07:13:07;;;;;;;4.53;1.08;;;;;;;26.27;38.42;99644.25;5089489;28;20192;-66
2022/07/06 07:15:32;;;;;;;2.97;1.30;;;;;;;26.11;39.28;99643.09;5096631;28;20058;-66
2022/07/06 07:17:58;;;;;;;3.65;1.30;;;;;;;26.06;40.15;99641.50;5097617;28;20494;-67
2022/07/06 07:20:25;;;;;;;3.00;1.10;;;;;;;26.19;40.25;99639.88;5088991;28;20413;-67
2022/07/06 07:22:50;;;;;;;3.40;1.10;;;;;;;26.19;39.57;99639.88;5099032;28;20744;-67
2022/07/06 07:25:16;;;;;;;4.30;1.20;;;;;;;26.02;38.34;99655.56;5099246;28;20028;-66
2022/07/06 07:27:42;;;;;;;2.95;1.17;;;;;;;25.95;40.11;99654.78;5092463;28;20624;-67
2022/07/06 07:30:08;;;;;;;5.28;1.00;;;;;;;26.05;39.55;99654.72;5096643;28;20032;-67
2022/07/06 07:32:33;;;;;;;6.22;1.55;;;;;;;26.14;38.21;99657.09;5102779;28;20036;-68
2022/07/06 07:34:59;;;;;;;3.30;1.05;;;;;;;26.01;37.09;99648.34;5095370;28;20086;-67
2022/07/06 07:37:24;;;;;;;2.50;1.00;;;;;;;25.87;39.09;99648.38;5083234;28;20043;-68
2022/07/06 07:39:49;;;;;;;3.28;1.08;;;;;;;25.93;38.84;99649.59;5086908;28;20048;-68
2022/07/06 07:42:15;;;;;;;4.32;1.23;;;;;;;26.13;37.95;99649.91;5080765;28;20052;-68
2022/07/06 07:44:41;;;;;;;2.15;0.68;;;;;;;26.07;37.53;99645.91;5075870;28;20039;-66
2022/07/06 07:47:06;;;;;;;3.17;0.88;;;;;;;25.95;39.39;99654.78;5080925;28;20056;-66
2022/07/06 07:49:32;;;;;;;1.88;0.75;;;;;;;25.97;39.27;99649.56;5078265;28;20054;-66
2022/07/06 07:51:58;;;;;;;5.10;1.00;;;;;;;26.09;38.64;99649.13;5073893;28;20292;-67
2022/07/06 07:54:23;;;;;;;4.97;0.90;;;;;;;26.15;38.74;99647.50;5080802;28;20142;-68
2022/07/06 07:56:48;;;;;;;4.13;0.98;;;;;;;26.14;39.53;99640.28;5078136;28;20040;-78
2022/07/06 07:59:14;;;;;;;2.67;0.90;;;;;;;26.28;39.49;99640.22;5083727;28;20050;-66
2022/07/06 08:01:39;;;;;;;2.45;0.82;;;;;;;26.48;39.60;99636.97;5079567;28;20151;-67
2022/07/06 08:04:05;;;;;;;17.75;3.88;;;;;;;26.67;39.54;99633.66;5075369;28;20050;-67
2022/07/06 08:06:31;;;;;;;19.33;3.53;;;;;;;26.88;38.99;99643.97;5072793;28;20044;-67
2022/07/06 08:08:56;;;;;;;11.25;3.20;;;;;;;26.99;38.69;99632.66;5069044;28;20823;-67
2022/07/06 08:11:22;;;;;;;12.00;2.83;;;;;;;27.08;38.56;99631.03;5070690;28;20047;-67
2022/07/06 08:13:47;;;;;;;17.45;2.75;;;;;;;27.19;38.46;99636.53;5071790;28;21761;-67
2022/07/06 08:16:13;;;;;;;10.48;2.63;;;;;;;27.20;38.41;99631.72;5073878;28;20044;-67
2022/07/06 08:18:39;;;;;;;10.82;2.65;;;;;;;27.24;38.88;99624.09;5069408;28;20116;-67
2022/07/06 08:21:05;;;;;;;11.55;2.47;;;;;;;27.27;38.73;99614.81;5074250;28;20043;-68
2022/07/06 08:23:31;;;;;;;9.90;2.22;;;;;;;27.26;38.13;99614.03;5071776;28;20044;-67
2022/07/06 08:25:56;;;;;;;6.80;2.10;;;;;;;27.26;38.98;99614.03;5088090;28;20054;-67
2022/07/06 08:28:22;;;;;;;7.22;1.92;;;;;;;27.25;38.86;99617.25;5089865;28;20058;-66
2022/07/06 08:30:47;;;;;;;7.57;1.73;;;;;;;27.25;39.07;99606.81;5091342;28;20042;-67
2022/07/06 08:33:13;;;;;;;6.03;1.63;;;;;;;27.28;38.58;99608.78;5063069;28;20473;-67
2022/07/06 08:35:39;;;;;;;6.20;1.88;;;;;;;27.25;39.06;99603.22;5071985;28;20615;-68
2022/07/06 08:38:04;;;;;;;7.18;1.88;;;;;;;27.24;38.83;99596.78;5072262;28;20495;-67
2022/07/06 08:40:34;;;;;;;5.38;1.38;;;;;;;27.32;38.17;99601.13;5062154;28;20478;-69
2022/07/06 08:43:00;;;;;;;3.85;1.33;;;;;;;27.32;39.37;99601.13;5072238;28;21505;-67
2022/07/06 08:45:27;;;;;;;70.85;11.02;;;;;;;27.37;38.92;99594.28;5071375;28;20040;-67
2022/07/06 08:47:54;;;;;;;12.05;3.60;;;;;;;27.35;38.28;99577.81;5069514;28;20198;-67
2022/07/06 08:50:21;;;;;;;11.70;2.95;;;;;;;27.37;39.29;99580.22;5066579;28;20043;-66
2022/07/06 08:52:48;;;;;;;13.77;2.60;;;;;;;27.34;38.71;99578.25;5073085;28;20051;-67
2022/07/06 08:55:14;;;;;;;7.60;1.95;;;;;;;27.36;38.71;99579.44;5072723;28;20039;-67
2022/07/06 08:57:40;;;;;;;23.58;6.03;;;;;;;27.39;38.60;99578.59;5070388;28;20067;-67
2022/07/06 09:00:08;;;;;;;41.80;13.90;;;;;;;27.39;38.00;99575.78;5071620;28;20048;-67
2022/07/06 09:02:34;;;;;;;44.08;15.02;;;;;;;27.38;38.92;99579.81;5076438;28;20055;-67
2022/07/06 09:05:03;;;;;;;39.08;12.85;;;;;;;27.43;38.92;99581.34;5069463;28;20051;-67
2022/07/06 09:07:29;;;;;;;50.95;17.75;;;;;;;27.46;38.73;99579.75;5071506;28;20092;-67
2022/07/06 09:09:55;;;;;;;62.33;24.15;;;;;;;27.39;38.98;99589.81;5071694;28;20054;-67
2022/07/06 09:12:21;;;;;;;72.13;26.42;;;;;;;27.44;39.28;99591.41;5068755;28;20100;-68
2022/07/06 09:14:47;;;;;;;62.92;23.08;;;;;;;27.44;39.00;99580.16;5071134;28;20068;-67
2022/07/06 09:17:13;;;;;;;57.28;21.70;;;;;;;27.41;38.27;99581.78;5072874;28;20036;-68
2022/07/06 09:19:38;;;;;;;56.38;20.38;;;;;;;27.46;39.17;99586.16;5071753;28;20652;-69
2022/07/06 09:22:04;;;;;;;51.72;18.38;;;;;;;27.50;38.90;99588.91;5101194;28;20050;-68
2022/07/06 09:24:31;;;;;;;53.30;18.00;;;;;;;27.43;38.36;99589.78;5108806;28;20082;-68
2022/07/06 09:26:58;;;;;;;46.50;17.30;;;;;;;27.44;39.50;99582.97;5106271;28;20062;-68
2022/07/06 09:29:31;;;;;;;41.60;15.40;;;;;;;27.46;39.09;99588.16;5102328;28;20130;-67
2022/07/06 09:32:02;;;;;;;40.15;14.82;;;;;;;27.47;38.20;99581.34;5096436;28;20519;-71
2022/07/06 09:34:42;;;;;;;31.50;12.48;;;;;;;27.45;39.40;99587.38;5095509;28;20052;-75
2022/07/06 09:37:08;;;;;;;27.67;11.15;;;;;;;27.52;39.09;99575.28;5094755;28;20075;-68
2022/07/06 09:39:33;;;;;;;31.83;12.27;;;;;;;27.49;39.39;99582.50;5095947;28;20087;-68
2022/07/06 09:42:00;;;;;;;28.95;11.05;;;;;;;27.42;39.29;99583.38;5097846;28;20067;-69
2022/07/06 09:44:28;;;;;;;25.73;9.15;;;;;;;27.42;39.03;99572.13;5095163;28;20054;-68
2022/07/06 09:47:02;;;;;;;23.77;8.65;;;;;;;27.45;38.87;99572.53;5091194;28;20122;-71
2022/07/06 09:49:28;;;;;;;24.88;8.57;;;;;;;27.49;40.19;99579.69;5081989;28;20512;-70
2022/07/06 09:51:58;;;;;;;19.63;7.65;;;;;;;27.52;40.26;99576.06;5058156;28;20494;-69
2022/07/06 09:54:24;;;;;;;19.98;7.15;;;;;;;27.53;39.96;99574.06;5066474;28;20059;-68
2022/07/06 09:56:51;;;;;;;16.27;6.03;;;;;;;27.48;40.24;99564.06;5071738;28;20136;-69
2022/07/06 09:59:23;;;;;;;13.93;5.75;;;;;;;27.45;39.82;99564.09;5071913;28;20636;-69
2022/07/06 10:01:56;;;;;;;12.90;5.13;;;;;;;27.48;40.59;99563.25;5072561;28;20070;-69
2022/07/06 10:04:24;;;;;;;13.40;4.80;;;;;;;27.51;40.49;99556.81;5069349;28;20043;-69
2022/07/06 10:06:50;;;;;;;13.55;5.22;;;;;;;27.56;40.14;99561.97;5070985;28;20047;-69
2022/07/06 10:09:17;;;;;;;10.55;4.20;;;;;;;27.49;38.82;99559.22;5074517;28;20222;-77
2022/07/06 10:11:51;;;;;;;11.82;4.50;;;;;;;27.49;40.81;99550.81;5061100;28;20108;-68
2022/07/06 10:14:20;;;;;;;12.43;3.90;;;;;;;27.54;40.32;99564.41;5069574;28;20048;-70
2022/07/06 10:16:47;;;;;;;11.63;3.58;;;;;;;27.54;39.24;99551.16;5067883;28;20087;-69
2022/07/06 10:19:14;;;;;;;9.13;3.25;;;;;;;27.49;40.37;99548.00;5070878;28;20044;-69
2022/07/06 10:21:41;;;;;;;9.23;3.40;;;;;;;27.39;40.11;99547.69;5049451;28;20086;-68
2022/07/06 10:24:07;;;;;;;7.80;3.78;;;;;;;27.41;39.49;99548.06;5074839;28;20127;-67
2022/07/06 10:26:34;;;;;;;6.78;3.10;;;;;;;27.41;40.13;99545.25;5059696;28;20456;-68
2022/07/06 10:29:04;;;;;;;10.38;2.70;;;;;;;27.38;40.04;99548.91;5071328;28;20103;-69
2022/07/06 10:31:31;;;;;;;5.70;2.50;;;;;;;27.39;39.45;99541.28;5072362;28;20505;-70
2022/07/06 10:34:05;;;;;;;5.72;2.40;;;;;;;27.38;39.78;99545.31;5071344;28;20052;-69
2022/07/06 10:36:31;;;;;;;11.05;2.35;;;;;;;27.39;39.62;99550.50;5074628;28;20047;-69
2022/07/06 10:38:57;;;;;;;5.82;2.35;;;;;;;27.39;39.00;99549.72;5076586;28;20619;-69
2022/07/06 10:41:33;;;;;;;9.35;2.08;;;;;;;27.39;38.47;99535.66;5072858;28;21013;-70
2022/07/06 10:44:15;;;;;;;5.53;1.95;;;;;;;27.41;39.55;99544.47;5072556;28;20134;-69
2022/07/06 10:46:40;;;;;;;5.38;1.60;;;;;;;27.41;38.99;99548.06;5071053;28;20071;-69
2022/07/06 10:49:16;;;;;;;4.68;1.92;;;;;;;27.41;38.95;99533.22;5095185;28;20441;-69
2022/07/06 10:51:42;;;;;;;5.38;2.00;;;;;;;27.38;39.47;99522.84;5095591;28;20169;-69
2022/07/06 10:54:09;;;;;;;3.22;1.50;;;;;;;27.32;39.16;99530.91;5095844;28;20558;-69
2022/07/06 10:56:42;;;;;;;4.03;1.55;;;;;;;27.38;38.43;99508.78;5098019;28;20030;-69
2022/07/06 10:59:19;;;;;;;8.85;1.90;;;;;;;27.39;39.39;99525.22;5102136;28;20404;-69
2022/07/06 11:02:16;;;;;;;3.60;1.58;;;;;;;27.37;39.16;99529.66;5104062;28;20121;-72
2022/07/06 11:04:46;;;;;;;4.47;1.42;;;;;;;27.38;38.52;99528.44;5100331;28;20511;-71
2022/07/06 11:07:18;;;;;;;2.92;1.25;;;;;;;27.39;39.26;99518.81;5098149;28;20043;-71
2022/07/06 11:09:58;;;;;;;4.95;1.70;;;;;;;27.34;39.13;99514.44;5099735;28;20582;-70
2022/07/06 11:12:23;;;;;;;5.72;1.38;;;;;;;27.36;38.42;99516.81;5100020;28;20050;-71
2022/07/06 11:14:51;;;;;;;3.70;1.40;;;;;;;27.38;39.34;99511.59;5079670;28;20684;-70
2022/07/06 11:17:17;;;;;;;2.80;1.17;;;;;;;27.36;39.00;99499.97;5100693;28;20518;-70
2022/07/06 11:19:51;;;;;;;3.20;1.45;;;;;;;27.36;38.21;99503.59;5097912;28;20036;-70
2022/07/06 11:22:18;;;;;;;4.63;1.20;;;;;;;27.36;39.13;99512.03;5101733;28;20044;-71
2022/07/06 11:24:45;;;;;;;3.80;1.10;;;;;;;27.33;38.78;99492.38;5100760;28;20062;-70
2022/07/06 11:27:10;;;;;;;3.35;1.10;;;;;;;27.32;38.19;99493.59;5104798;28;20180;-70
2022/07/06 11:29:39;;;;;;;4.38;1.00;;;;;;;27.30;39.60;99484.81;5100235;28;20126;-68
2022/07/06 11:32:09;;;;;;;3.92;0.93;;;;;;;27.29;39.61;99478.38;5099428;28;20051;-69
2022/07/06 11:34:37;;;;;;;3.17;1.10;;;;;;;27.39;39.05;99480.28;5091614;28;20059;-76